createdAt,value
2018-03-15T00:01:27.500Z,34.7
2018-03-15T00:11:27.256Z,35.0
2018-03-15T00:21:27.874Z,33.8
2018-03-15T00:31:27.732Z,33.7
2018-03-15T00:41:26.708Z,35.2
2018-03-15T00:51:26.705Z,34.7
2018-03-15T01:01:27.986Z,33.9
2018-03-15T01:11:27.114Z,32.6
2018-03-15T01:21:26.200Z,33.8
2018-03-15T01:31:25.968Z,29.8
2018-03-15T01:41:27.792Z,27.6
2018-03-15T01:51:26.310Z,25.7
2018-03-15T02:01:26.620Z,26.0
2018-03-15T02:11:26.700Z,26.7
2018-03-15T02:21:26.557Z,25.8
2018-03-15T02:31:26.295Z,26.7
2018-03-15T02:41:25.952Z,28.6
2018-03-15T02:51:26.210Z,28.7
2018-03-15T03:01:35.796Z,28.5
2018-03-15T03:11:26.693Z,28.7
2018-03-15T03:21:26.805Z,27.3
2018-03-15T03:31:28.208Z,25.9
2018-03-15T03:41:27.022Z,26.6
2018-03-15T03:51:26.451Z,26.2
2018-03-15T04:01:26.205Z,26.8
2018-03-15T04:11:26.084Z,27.2
2018-03-15T04:21:26.350Z,24.3
2018-03-15T04:31:27.014Z,24.7
2018-03-15T04:41:27.125Z,24.5
2018-03-15T04:51:26.351Z,23.5
2018-03-15T05:01:26.406Z,24.7
2018-03-15T05:11:26.095Z,24.3
2018-03-15T05:21:26.034Z,22.9
2018-03-15T05:31:28.558Z,22.9
2018-03-15T05:41:26.202Z,24.2
2018-03-15T05:51:25.955Z,23.4
2018-03-15T06:01:27.273Z,23.1
2018-03-15T06:11:26.229Z,27.2
2018-03-15T06:21:27.020Z,20.4
2018-03-15T06:31:27.241Z,21.7
2018-03-15T06:41:28.445Z,22.2
2018-03-15T06:51:26.693Z,22.5
2018-03-15T07:01:28.667Z,16.5
2018-03-15T07:11:28.049Z,17.7
2018-03-15T07:21:27.365Z,15.9
2018-03-15T07:31:27.778Z,15.3
2018-03-15T07:41:26.761Z,13.4
2018-03-15T07:51:26.365Z,13.8
2018-03-15T08:01:26.072Z,14.4
2018-03-15T08:11:34.624Z,14.6
2018-03-15T08:21:29.580Z,12.8
2018-03-15T08:31:26.260Z,11.3
2018-03-15T08:41:25.936Z,11.3
2018-03-15T08:51:26.935Z,9.7
2018-03-15T09:01:26.636Z,7.3
2018-03-15T09:11:26.264Z,6.9
2018-03-15T09:21:26.584Z,6.7
2018-03-15T09:31:32.282Z,6.8
2018-03-15T09:41:28.054Z,6.7
2018-03-15T09:51:29.128Z,5.4
2018-03-15T10:01:28.264Z,5.2
2018-03-15T10:11:26.720Z,4.0
2018-03-15T10:21:31.463Z,4.1
2018-03-15T10:31:27.451Z,6.0
2018-03-15T10:41:27.980Z,5.5
2018-03-15T10:51:26.135Z,5.5
2018-03-15T11:01:25.974Z,8.7
2018-03-15T11:11:25.680Z,11.5
2018-03-15T11:21:26.706Z,10.1
2018-03-15T11:31:26.478Z,8.7
2018-03-15T11:41:28.603Z,9.1
2018-03-15T11:51:27.150Z,7.6
2018-03-15T12:01:27.610Z,6.4
2018-03-15T12:11:26.700Z,8.4
2018-03-15T12:21:27.402Z,9.6
2018-03-15T12:31:31.669Z,10.5
2018-03-15T12:41:29.143Z,10.4
2018-03-15T12:51:27.935Z,11.4
2018-03-15T13:01:28.903Z,12.4
2018-03-15T13:11:26.674Z,12.2
2018-03-15T13:21:27.301Z,12.0
2018-03-15T13:31:29.192Z,10.4
2018-03-15T13:41:32.724Z,11.0
2018-03-15T13:51:31.728Z,10.8
2018-03-15T14:01:26.304Z,11.6
2018-03-15T14:11:25.998Z,12.8
2018-03-15T14:21:26.086Z,12.4
2018-03-15T14:31:28.108Z,12.5
2018-03-15T14:41:26.627Z,13.3
2018-03-15T14:51:32.449Z,13.8
2018-03-15T15:01:28.586Z,14.2
2018-03-15T15:11:30.218Z,15.8
2018-03-15T15:21:25.893Z,14.2
2018-03-15T15:31:28.674Z,14.0
2018-03-15T15:41:27.046Z,14.5
2018-03-15T15:51:26.513Z,14.8
2018-03-15T16:01:27.585Z,14.7
2018-03-15T16:11:26.093Z,15.9
2018-03-15T16:21:32.939Z,17.7
2018-03-15T16:31:26.053Z,19.5
2018-03-15T16:41:25.779Z,21.1
2018-03-15T16:51:29.743Z,22.5
2018-03-15T17:01:26.323Z,26.0
2018-03-15T17:11:30.917Z,19.5
2018-03-15T17:21:26.850Z,20.2
2018-03-15T17:31:26.748Z,22.4
2018-03-15T17:41:26.339Z,20.0
2018-03-15T17:51:26.057Z,21.2
2018-03-15T18:01:27.035Z,19.6
2018-03-15T18:11:27.442Z,19.7
2018-03-15T18:21:28.498Z,20.5
2018-03-15T18:31:26.235Z,27.5
2018-03-15T18:41:25.843Z,33.7
2018-03-15T18:51:29.419Z,30.8
2018-03-15T19:01:26.311Z,27.7
2018-03-15T19:11:29.783Z,28.6
2018-03-15T19:21:27.410Z,28.6
2018-03-15T19:31:29.742Z,23.4
2018-03-15T19:41:26.321Z,22.3
2018-03-15T19:51:27.183Z,21.7
2018-03-15T20:01:28.926Z,23.8
2018-03-15T20:11:26.507Z,25.5
2018-03-15T20:21:27.496Z,23.5
2018-03-15T20:31:26.288Z,25.2
2018-03-15T20:41:25.980Z,25.0
2018-03-15T20:51:28.297Z,27.6
2018-03-15T21:01:28.397Z,26.4
2018-03-15T21:11:30.794Z,26.4
2018-03-15T21:21:26.617Z,26.9
2018-03-15T21:31:26.833Z,26.3
2018-03-15T21:41:27.171Z,26.1
2018-03-15T21:51:28.259Z,27.4
2018-03-15T22:01:27.225Z,26.9
2018-03-15T22:11:26.317Z,29.9
2018-03-15T22:21:26.115Z,28.1
2018-03-15T22:31:29.466Z,28.0
2018-03-15T22:41:26.604Z,28.5
2018-03-15T22:51:28.099Z,29.6
2018-03-15T23:01:26.608Z,31.8
2018-03-15T23:11:28.970Z,29.9
2018-03-15T23:21:26.067Z,29.5
2018-03-15T23:31:26.619Z,29.9
2018-03-15T23:41:29.019Z,29.5
2018-03-15T23:51:27.152Z,28.6
